Le Roy, Illinois
Current Conditions -  °F | °C
As of 10:56 PM on Monday 20 Oct 2014 (Local Time) from KBMI Reporting Station
Clear Clear  
Wind Chill: 50°   Ceiling: Unl
Heat Index: 50°   Visibility: 10mi
Dew Point: 44°   Wind: 8mph
Humidity: 79%   Direction: 30°NNE
Pressure: 30.02"   Gusts: NA
Location:  40.35°N, 88.76°W
Report Text: KBMI 210356Z AUTO 03007KT 10SM CLR 10/07 A3002 RMK AO2 T01000066 SLP166
Loading
Personal Weather Stations






























Interactive Weather Map
Tropical Storm Tracking
New forecast layout! Learn more

10-Day Weather Forecast

Advertisements
Track Severe Weather on mobile